createdAt,value
2023-08-29T00:00:39.401Z,3.50
2023-08-29T00:06:05.897Z,4.00
2023-08-29T00:11:11.709Z,4.30
2023-08-29T00:16:18.073Z,4.30
2023-08-29T00:21:23.783Z,3.90
2023-08-29T00:26:29.476Z,4.10
2023-08-29T00:31:35.450Z,4.00
2023-08-29T00:36:40.986Z,3.70
2023-08-29T00:41:50.377Z,4.50
2023-08-29T00:46:56.254Z,4.40
2023-08-29T00:52:03.652Z,4.10
2023-08-29T00:57:09.762Z,3.50
2023-08-29T01:02:15.573Z,4.00
2023-08-29T01:07:21.104Z,4.40
2023-08-29T01:12:43.671Z,3.70
2023-08-29T01:17:56.049Z,3.90
2023-08-29T01:23:15.374Z,3.00
2023-08-29T01:28:23.078Z,3.30
2023-08-29T01:33:29.192Z,3.20
2023-08-29T01:38:34.796Z,3.00
2023-08-29T01:43:40.490Z,3.10
2023-08-29T01:48:46.486Z,3.40
2023-08-29T01:53:52.012Z,2.60
2023-08-29T01:59:00.156Z,2.60
2023-08-29T02:04:06.202Z,2.40
2023-08-29T02:09:12.300Z,2.20
2023-08-29T02:14:18.037Z,2.40
2023-08-29T02:19:23.773Z,2.30
2023-08-29T02:24:30.250Z,1.80
2023-08-29T02:29:36.533Z,2.20
2023-08-29T02:34:42.380Z,1.90
2023-08-29T02:39:47.910Z,1.80
2023-08-29T02:44:53.504Z,1.60
2023-08-29T02:50:00.025Z,1.90
2023-08-29T02:55:09.055Z,1.70
2023-08-29T03:00:16.777Z,1.50
2023-08-29T03:05:23.114Z,1.70
2023-08-29T03:10:28.934Z,1.60
2023-08-29T03:15:35.588Z,3.80
2023-08-29T03:20:43.279Z,2.70
2023-08-29T03:25:49.417Z,1.90
2023-08-29T03:30:55.321Z,1.40
2023-08-29T03:36:01.361Z,1.60
2023-08-29T03:41:07.324Z,1.70
2023-08-29T03:46:12.990Z,1.50
2023-08-29T03:51:18.638Z,1.60
2023-08-29T03:56:24.351Z,1.60
2023-08-29T04:01:30.601Z,1.40
2023-08-29T04:06:36.416Z,1.80
2023-08-29T04:11:41.985Z,1.70
2023-08-29T04:16:48.974Z,1.60
2023-08-29T04:21:54.670Z,1.40
2023-08-29T04:27:00.526Z,1.80
2023-08-29T04:32:07.115Z,1.70
2023-08-29T04:37:12.770Z,2.00
2023-08-29T04:42:18.570Z,1.80
2023-08-29T04:47:24.355Z,2.10
2023-08-29T04:52:30.373Z,2.10
2023-08-29T04:57:36.084Z,2.00
2023-08-29T05:02:41.697Z,2.00
2023-08-29T05:07:47.611Z,1.90
2023-08-29T05:12:53.289Z,2.30
2023-08-29T05:17:59.199Z,2.00
2023-08-29T05:23:05.289Z,2.20
2023-08-29T05:28:11.628Z,1.90
2023-08-29T05:33:17.712Z,1.80
2023-08-29T05:38:26.559Z,2.00
2023-08-29T05:43:32.254Z,2.00
2023-08-29T05:48:37.974Z,1.90
2023-08-29T05:53:43.726Z,2.00
2023-08-29T05:58:49.566Z,1.90
2023-08-29T06:03:55.560Z,2.00
2023-08-29T06:09:02.024Z,1.80
2023-08-29T06:14:08.734Z,1.90
2023-08-29T06:19:14.320Z,1.90
2023-08-29T06:24:20.480Z,1.80
2023-08-29T06:29:26.251Z,1.90
2023-08-29T06:34:31.914Z,1.80
2023-08-29T06:39:38.527Z,1.50
2023-08-29T06:44:43.972Z,1.60
2023-08-29T06:49:49.579Z,1.90
2023-08-29T06:54:55.431Z,1.60
2023-08-29T07:00:00.882Z,1.80
2023-08-29T07:05:09.740Z,1.40
2023-08-29T07:10:16.154Z,1.70
2023-08-29T07:15:22.259Z,1.90
2023-08-29T07:20:28.088Z,1.60
2023-08-29T07:25:44.871Z,1.80
2023-08-29T07:30:52.671Z,1.50
2023-08-29T07:36:02.307Z,1.50
2023-08-29T07:41:08.486Z,2.00
2023-08-29T07:46:14.479Z,2.20
2023-08-29T07:51:20.134Z,1.60
2023-08-29T07:56:25.946Z,2.50
2023-08-29T08:01:31.954Z,2.20
2023-08-29T08:06:37.710Z,3.20
2023-08-29T08:11:43.528Z,2.50
2023-08-29T08:16:49.243Z,2.60
2023-08-29T08:21:55.199Z,2.60
2023-08-29T08:27:00.712Z,2.60
2023-08-29T08:32:06.754Z,3.30
2023-08-29T08:37:12.831Z,3.10
2023-08-29T08:42:19.633Z,3.30
2023-08-29T08:47:26.629Z,3.90
2023-08-29T08:52:34.609Z,3.70
2023-08-29T08:57:40.709Z,3.50
2023-08-29T09:02:48.169Z,4.10
2023-08-29T09:07:54.236Z,4.20
2023-08-29T09:12:59.999Z,4.70
2023-08-29T09:18:07.428Z,4.00
2023-08-29T09:23:24.169Z,4.40
2023-08-29T09:28:30.373Z,5.30
2023-08-29T09:33:37.386Z,6.00
2023-08-29T09:38:43.433Z,6.00
2023-08-29T09:43:50.716Z,5.60
2023-08-29T09:48:59.273Z,5.50
2023-08-29T09:54:12.151Z,6.20
2023-08-29T09:59:22.028Z,5.70
2023-08-29T10:04:30.373Z,6.30
2023-08-29T10:09:37.168Z,5.60
2023-08-29T10:14:45.159Z,5.50
2023-08-29T10:19:52.356Z,6.90
2023-08-29T10:25:00.439Z,7.90
2023-08-29T10:30:08.036Z,7.60
2023-08-29T10:35:24.637Z,9.10
2023-08-29T10:40:36.954Z,8.10
2023-08-29T10:45:49.767Z,7.90
2023-08-29T10:51:12.508Z,8.70
2023-08-29T10:56:19.495Z,8.40
2023-08-29T11:01:32.359Z,8.10
2023-08-29T11:06:55.213Z,9.40
2023-08-29T11:12:14.303Z,7.80
2023-08-29T11:17:27.108Z,8.90
2023-08-29T11:22:33.305Z,8.00
2023-08-29T11:27:40.394Z,7.60
2023-08-29T11:32:53.111Z,7.90
2023-08-29T11:38:00.473Z,8.00
2023-08-29T11:43:23.771Z,8.90
2023-08-29T11:48:35.155Z,8.10
2023-08-29T11:53:40.888Z,7.70
2023-08-29T11:58:47.043Z,8.30
2023-08-29T12:03:54.048Z,8.00
2023-08-29T12:09:01.310Z,7.40
2023-08-29T12:14:08.694Z,8.90
2023-08-29T12:19:17.956Z,9.10
2023-08-29T12:24:24.072Z,9.00
2023-08-29T12:29:30.002Z,8.70
2023-08-29T12:34:35.765Z,9.30
2023-08-29T12:39:41.694Z,9.50
2023-08-29T12:44:47.490Z,9.10
2023-08-29T12:49:53.741Z,8.70
2023-08-29T12:54:59.319Z,9.40
2023-08-29T13:00:08.374Z,9.50
2023-08-29T13:05:14.268Z,10.10
2023-08-29T13:10:20.130Z,10.10
2023-08-29T13:15:33.775Z,10.40
2023-08-29T13:20:45.361Z,10.70
2023-08-29T13:25:51.048Z,10.80
2023-08-29T13:30:59.896Z,10.90
2023-08-29T13:36:07.386Z,10.10
2023-08-29T13:41:13.416Z,10.20
2023-08-29T13:46:19.284Z,10.80
2023-08-29T13:51:26.531Z,10.80
2023-08-29T13:56:33.333Z,11.80
2023-08-29T14:01:42.937Z,11.70
2023-08-29T14:06:49.699Z,10.80
2023-08-29T14:11:55.623Z,10.90
2023-08-29T14:17:01.270Z,10.80
2023-08-29T14:22:07.173Z,10.30
2023-08-29T14:27:13.175Z,9.70
2023-08-29T14:32:18.824Z,8.50
2023-08-29T14:37:24.628Z,7.30
2023-08-29T14:42:30.406Z,7.00
2023-08-29T14:47:37.793Z,6.20
2023-08-29T14:52:43.528Z,6.10
2023-08-29T14:57:49.709Z,6.00
2023-08-29T15:02:55.905Z,6.00
2023-08-29T15:08:02.651Z,6.30
2023-08-29T15:13:09.399Z,5.70
2023-08-29T15:18:15.439Z,5.70
2023-08-29T15:23:21.070Z,6.00
2023-08-29T15:28:30.027Z,6.10
2023-08-29T15:33:36.822Z,6.10
2023-08-29T15:38:43.851Z,5.40
2023-08-29T15:43:49.711Z,6.30
2023-08-29T15:48:55.275Z,7.20
2023-08-29T15:54:00.817Z,7.00
2023-08-29T15:59:07.390Z,6.90
2023-08-29T16:04:13.106Z,7.10
2023-08-29T16:09:31.155Z,6.90
2023-08-29T16:14:37.354Z,7.60
2023-08-29T16:19:45.414Z,7.80
2023-08-29T16:24:57.178Z,7.50
2023-08-29T16:30:02.988Z,7.40
2023-08-29T16:35:09.705Z,13.60
2023-08-29T16:40:15.623Z,47.80
2023-08-29T16:45:21.308Z,18.40
2023-08-29T16:50:27.374Z,7.50
2023-08-29T16:55:37.658Z,8.30
2023-08-29T17:00:43.513Z,8.60
2023-08-29T17:05:49.270Z,8.00
2023-08-29T17:10:55.443Z,7.40
2023-08-29T17:16:01.790Z,7.40
2023-08-29T17:21:07.521Z,8.50
2023-08-29T17:26:13.148Z,8.50
2023-08-29T17:31:18.801Z,8.00
2023-08-29T17:36:27.491Z,7.40
2023-08-29T17:41:35.812Z,7.00
2023-08-29T17:46:44.676Z,7.60
2023-08-29T17:51:50.306Z,8.10
2023-08-29T17:56:57.789Z,7.60
2023-08-29T18:02:03.948Z,8.30
2023-08-29T18:07:09.764Z,7.70
2023-08-29T18:12:15.522Z,8.70
2023-08-29T18:17:21.454Z,9.40
2023-08-29T18:22:27.834Z,8.50
2023-08-29T18:27:33.661Z,8.60
2023-08-29T18:32:39.419Z,8.30
2023-08-29T18:37:45.488Z,8.10
2023-08-29T18:42:51.920Z,8.30
2023-08-29T18:47:58.107Z,7.80
2023-08-29T18:53:05.014Z,7.10
2023-08-29T18:58:11.879Z,7.30
2023-08-29T19:03:20.112Z,8.30
2023-08-29T19:08:26.353Z,9.00
2023-08-29T19:13:34.460Z,8.40
2023-08-29T19:18:40.759Z,7.50
2023-08-29T19:23:47.835Z,8.10
2023-08-29T19:29:01.110Z,8.30
2023-08-29T19:34:09.490Z,8.70
2023-08-29T19:39:18.889Z,8.90
2023-08-29T19:44:37.271Z,7.70
2023-08-29T19:49:48.583Z,8.30
2023-08-29T19:54:55.039Z,7.40
2023-08-29T20:00:06.403Z,8.90
2023-08-29T20:05:19.216Z,8.80
2023-08-29T20:10:25.342Z,8.50
2023-08-29T20:15:31.391Z,8.00
2023-08-29T20:20:41.659Z,8.60
2023-08-29T20:25:47.529Z,8.60
2023-08-29T20:30:58.509Z,9.10
2023-08-29T20:36:06.652Z,10.00
2023-08-29T20:41:12.503Z,10.30
2023-08-29T20:46:18.461Z,9.90
2023-08-29T20:51:24.548Z,10.80
2023-08-29T20:56:36.762Z,10.30
2023-08-29T21:01:46.174Z,9.80
2023-08-29T21:06:51.778Z,10.30
2023-08-29T21:11:57.573Z,9.50
2023-08-29T21:17:03.917Z,10.70
2023-08-29T21:22:09.523Z,11.70
2023-08-29T21:27:20.684Z,10.30
2023-08-29T21:32:26.195Z,9.70
2023-08-29T21:37:45.932Z,9.80
2023-08-29T21:42:51.666Z,9.90
2023-08-29T21:47:57.859Z,9.60
2023-08-29T21:53:04.364Z,9.60
2023-08-29T21:58:17.693Z,11.20
2023-08-29T22:03:24.796Z,12.50
2023-08-29T22:08:30.527Z,11.80
2023-08-29T22:13:36.134Z,11.90
2023-08-29T22:18:41.772Z,11.00
2023-08-29T22:23:47.773Z,11.90
2023-08-29T22:28:53.315Z,12.10
2023-08-29T22:33:59.103Z,12.30
2023-08-29T22:39:04.741Z,11.40
2023-08-29T22:44:10.697Z,10.80
2023-08-29T22:49:16.349Z,12.70
2023-08-29T22:54:22.076Z,13.10
2023-08-29T22:59:30.202Z,12.70
2023-08-29T23:04:36.073Z,12.30
2023-08-29T23:09:43.722Z,12.10
2023-08-29T23:14:49.263Z,11.10
2023-08-29T23:20:09.362Z,11.60
2023-08-29T23:25:17.242Z,12.70
2023-08-29T23:30:23.355Z,12.50
2023-08-29T23:35:29.038Z,12.50
2023-08-29T23:40:38.397Z,14.40
2023-08-29T23:45:44.461Z,14.80
2023-08-29T23:50:50.273Z,14.60
2023-08-29T23:55:56.038Z,14.80
